Time;durP1;ratioP1;P1;durP2;ratioP2;P2;SDS_P1;SDS_P2;PMS_P1;PMS_P2;Temp;Humidity;BMP_temperature;BMP_pressure;BME280_temperature;BME280_humidity;BME280_pressure;Samples;Min_cycle;Max_cycle;Signal;HPM_P1;HPM_P2
2022/03/20 00:00:24;;;;;;;10.15;7.72;;;5.60;99.90;;;;;;4961439;28;89768;-33
2022/03/20 00:02:50;;;;;;;12.52;5.60;;;5.60;99.90;;;;;;4961532;28;88940;-34
2022/03/20 00:05:17;;;;;;;11.43;7.70;;;5.50;99.90;;;;;;4960661;28;90524;-33
2022/03/20 00:07:44;;;;;;;10.23;7.68;;;5.40;99.90;;;;;;4960661;28;89356;-34
2022/03/20 00:10:10;;;;;;;8.73;7.25;;;5.50;99.90;;;;;;4961032;28;88640;-34
2022/03/20 00:12:36;;;;;;;9.25;7.03;;;5.40;99.90;;;;;;4960414;28;89588;-34
2022/03/20 00:15:03;;;;;;;11.35;7.95;;;5.40;99.90;;;;;;4998933;23;90720;-34
2022/03/20 00:17:29;;;;;;;11.80;7.72;;;5.30;99.90;;;;;;4941766;28;89724;-32
2022/03/20 00:19:54;;;;;;;13.25;8.73;;;5.20;99.90;;;;;;4940886;28;89222;-34
2022/03/20 00:22:20;;;;;;;11.00;8.80;;;5.10;99.90;;;;;;4942314;28;87903;-33
2022/03/20 00:24:47;;;;;;;11.75;8.45;;;5.10;99.90;;;;;;4941054;28;89320;-35
2022/03/20 00:27:13;;;;;;;14.10;8.95;;;5.10;99.90;;;;;;4940921;28;90062;-33
2022/03/20 00:29:39;;;;;;;11.27;7.47;;;5.10;99.90;;;;;;4941492;28;91116;-32
2022/03/20 00:32:07;;;;;;;13.20;9.18;;;5.00;99.90;;;;;;4941739;28;88619;-37
2022/03/20 00:34:33;;;;;;;10.60;8.57;;;4.90;99.90;;;;;;4940616;28;93116;-32
2022/03/20 00:36:58;;;;;;;18.05;8.70;;;4.90;99.90;;;;;;4941079;28;89653;-32
2022/03/20 00:39:24;;;;;;;11.25;7.95;;;4.90;99.90;;;;;;4941339;28;89177;-36
2022/03/20 00:41:50;;;;;;;10.90;7.97;;;4.90;99.90;;;;;;4940976;28;87606;-34
2022/03/20 00:44:15;;;;;;;13.75;8.82;;;4.70;99.90;;;;;;4941405;28;91964;-33
2022/03/20 00:46:41;;;;;;;15.52;9.43;;;4.60;99.90;;;;;;4939067;28;90175;-34
2022/03/20 00:49:06;;;;;;;13.20;9.60;;;4.50;99.90;;;;;;4941404;28;89663;-33
2022/03/20 00:51:33;;;;;;;10.80;8.63;;;4.50;99.90;;;;;;4940844;28;89183;-34
2022/03/20 00:53:59;;;;;;;10.20;9.20;;;4.50;99.90;;;;;;4940910;28;90159;-33
2022/03/20 00:56:25;;;;;;;9.60;8.60;;;4.50;99.90;;;;;;4941003;28;89937;-34
2022/03/20 00:58:51;;;;;;;10.98;9.50;;;4.40;99.90;;;;;;4940411;28;89229;-33
2022/03/20 01:01:16;;;;;;;11.20;9.38;;;4.30;99.90;;;;;;4939122;28;87615;-37
2022/03/20 01:03:42;;;;;;;10.98;9.18;;;4.30;99.90;;;;;;4940362;28;90449;-36
2022/03/20 01:06:09;;;;;;;17.08;9.77;;;4.30;99.90;;;;;;4940516;28;88613;-37
2022/03/20 01:08:36;;;;;;;11.57;10.30;;;4.30;99.90;;;;;;4941275;28;89757;-36
2022/03/20 01:11:02;;;;;;;14.05;9.13;;;4.20;99.90;;;;;;4940075;28;88184;-36
2022/03/20 01:13:29;;;;;;;10.32;8.55;;;4.20;99.90;;;;;;4940208;28;90138;-33
2022/03/20 01:15:55;;;;;;;9.52;8.52;;;4.20;99.90;;;;;;4939603;28;89531;-33
2022/03/20 01:18:21;;;;;;;10.32;8.80;;;4.20;99.90;;;;;;4940503;28;90571;-34
2022/03/20 01:20:47;;;;;;;18.52;10.40;;;4.20;99.90;;;;;;4941107;28;87589;-37
2022/03/20 01:23:12;;;;;;;17.15;8.40;;;4.20;99.90;;;;;;4939857;28;90499;-31
2022/03/20 01:25:40;;;;;;;15.50;9.13;;;4.20;99.90;;;;;;4939805;28;89570;-38
2022/03/20 01:28:05;;;;;;;11.25;8.93;;;4.30;99.90;;;;;;4940871;28;89752;-35
2022/03/20 01:30:32;;;;;;;8.48;7.65;;;4.30;99.90;;;;;;4940555;28;88472;-36
2022/03/20 01:32:57;;;;;;;10.30;7.45;;;4.40;99.90;;;;;;4940828;28;90235;-35
2022/03/20 01:35:23;;;;;;;9.38;8.48;;;4.40;99.90;;;;;;4941048;28;90069;-32
2022/03/20 01:37:50;;;;;;;17.95;9.95;;;4.30;99.90;;;;;;4939531;28;89466;-32
2022/03/20 01:40:16;;;;;;;19.10;7.88;;;4.20;99.90;;;;;;4940222;28;90132;-32
2022/03/20 01:42:43;;;;;;;11.77;9.30;;;4.30;99.90;;;;;;4939804;28;90235;-34
2022/03/20 01:45:16;;;;;;;13.25;9.70;;;4.30;99.90;;;;;;4940226;28;89182;-34
2022/03/20 01:47:46;;;;;;;18.35;9.90;;;4.40;99.90;;;;;;4940907;28;89941;-34
2022/03/20 01:50:13;;;;;;;11.10;9.57;;;4.30;99.90;;;;;;4940721;28;88079;-36
2022/03/20 01:52:38;;;;;;;13.85;8.38;;;4.20;99.90;;;;;;4939783;28;91051;-34
2022/03/20 01:55:07;;;;;;;13.75;8.93;;;4.20;99.90;;;;;;4940084;28;89590;-37
2022/03/20 01:57:37;;;;;;;12.43;9.80;;;4.20;99.90;;;;;;4940693;28;89584;-34
2022/03/20 02:00:08;;;;;;;17.10;11.95;;;4.10;99.90;;;;;;4944449;28;87846;-34
2022/03/20 02:02:33;;;;;;;17.40;10.38;;;4.10;99.90;;;;;;4942889;28;91270;-35
2022/03/20 02:04:59;;;;;;;15.30;10.05;;;4.10;99.90;;;;;;4941899;28;89480;-33
2022/03/20 02:07:25;;;;;;;15.70;9.55;;;4.10;99.90;;;;;;4942257;28;90425;-34
2022/03/20 02:09:51;;;;;;;15.55;10.40;;;4.10;99.90;;;;;;4943780;28;89561;-34
2022/03/20 02:12:17;;;;;;;16.73;10.63;;;4.00;99.90;;;;;;4942158;28;90343;-37
2022/03/20 02:14:43;;;;;;;19.08;11.25;;;4.00;99.90;;;;;;4941746;28;89734;-33
2022/03/20 02:17:12;;;;;;;18.75;9.25;;;4.00;99.90;;;;;;4942980;28;88843;-32
2022/03/20 02:19:39;;;;;;;13.80;10.00;;;3.90;99.90;;;;;;4941475;28;88028;-34
2022/03/20 02:22:05;;;;;;;16.08;10.98;;;3.90;99.90;;;;;;4943128;28;90068;-33
2022/03/20 02:24:46;;;;;;;21.25;13.48;;;3.90;99.90;;;;;;4942897;28;89179;-33
2022/03/20 02:27:19;;;;;;;13.85;10.65;;;3.90;99.90;;;;;;4942599;28;89197;-32
2022/03/20 02:29:48;;;;;;;21.38;11.43;;;3.80;99.90;;;;;;4941853;28;89595;-35
2022/03/20 02:32:17;;;;;;;20.83;12.02;;;3.80;99.90;;;;;;4942367;28;90102;-34
2022/03/20 02:34:45;;;;;;;17.23;11.25;;;3.80;99.90;;;;;;4942212;28;89740;-33
2022/03/20 02:37:11;;;;;;;11.73;9.48;;;3.80;99.90;;;;;;4941882;28;89651;-35
2022/03/20 02:39:37;;;;;;;17.02;10.95;;;3.80;99.90;;;;;;4942874;28;87678;-33
2022/03/20 02:42:05;;;;;;;17.52;13.98;;;3.90;99.90;;;;;;4942058;28;90099;-32
2022/03/20 02:44:56;;;;;;;15.38;11.73;;;3.80;99.90;;;;;;4942036;28;89249;-33
2022/03/20 02:47:26;;;;;;;17.00;11.48;;;3.80;99.90;;;;;;4942591;28;90534;-35
2022/03/20 02:49:55;;;;;;;16.77;11.00;;;3.80;99.90;;;;;;4942137;28;89256;-36
2022/03/20 02:52:21;;;;;;;;;;;3.80;99.90;;;;;;4942631;28;90297;-35
2022/03/20 02:54:46;;;;;;;;;;;3.80;99.90;;;;;;4943550;28;90513;-38
2022/03/20 02:57:12;;;;;;;;;;;3.80;99.90;;;;;;4945295;28;89997;-32
2022/03/20 02:59:37;;;;;;;;;;;3.80;99.90;;;;;;4943968;28;89641;-36
2022/03/20 03:02:03;;;;;;;;;;;3.80;99.90;;;;;;4945424;28;90346;-34
2022/03/20 03:04:28;;;;;;;;;;;3.80;99.90;;;;;;4944679;28;89400;-34
2022/03/20 03:06:54;;;;;;;;;;;3.80;99.90;;;;;;4943976;28;88848;-35
2022/03/20 03:12:05;;;;;;;;;;;3.80;99.90;;;;;;4944256;28;89240;-35
2022/03/20 03:17:27;;;;;;;;;;;3.70;99.90;;;;;;4944006;28;89880;-34
2022/03/20 03:19:54;;;;;;;;;;;3.70;99.90;;;;;;4943308;28;89004;-32
2022/03/20 03:22:19;;;;;;;;;;;3.70;99.90;;;;;;4944732;28;90241;-35
2022/03/20 03:24:45;;;;;;;;;;;3.70;99.90;;;;;;4943576;28;89563;-35
2022/03/20 03:27:10;;;;;;;;;;;3.60;99.90;;;;;;4944335;28;89510;-33
2022/03/20 03:29:36;;;;;;;;;;;3.50;99.90;;;;;;4944201;28;88747;-34
2022/03/20 03:32:01;;;;;;;;;;;3.60;99.90;;;;;;4943754;28;89843;-35
2022/03/20 03:37:12;;;;;;;;;;;3.60;99.90;;;;;;4944525;28;89649;-33
2022/03/20 03:39:37;;;;;;;;;;;3.60;99.90;;;;;;4944777;28;88476;-37
2022/03/20 03:42:03;;;;;;;;;;;3.60;99.90;;;;;;4943268;28;90124;-33
2022/03/20 03:44:28;;;;;;;;;;;3.40;99.90;;;;;;4943516;28;90646;-35
2022/03/20 03:46:57;;;;;;;;;;;3.40;99.90;;;;;;4943164;28;89408;-35
2022/03/20 03:49:23;;;;;;;;;;;3.50;99.90;;;;;;4943121;28;87513;-32
2022/03/20 03:51:48;;;;;;;;;;;3.50;99.90;;;;;;4943383;28;90178;-33
2022/03/20 03:54:14;;;;;;;;;;;3.40;99.90;;;;;;4944242;28;90965;-32
2022/03/20 03:56:40;;;;;;;;;;;3.40;99.90;;;;;;4943462;28;89357;-33
2022/03/20 03:59:05;;;;;;;;;;;3.40;99.90;;;;;;4944560;28;88686;-33
2022/03/20 04:01:31;;;;;;;;;;;3.40;99.90;;;;;;4943806;28;90485;-35
2022/03/20 04:03:56;;;;;;;;;;;3.40;99.90;;;;;;4943774;28;89395;-33
2022/03/20 04:06:22;;;;;;;;;;;3.40;99.90;;;;;;4943630;28;89971;-36
2022/03/20 04:08:47;;;;;;;;;;;3.30;99.90;;;;;;4942876;28;89658;-34
2022/03/20 04:11:13;;;;;;;;;;;3.30;99.90;;;;;;4943276;28;91102;-34
2022/03/20 04:13:38;;;;;;;;;;;3.20;99.90;;;;;;4942947;28;89403;-34
2022/03/20 04:16:05;;;;;;;;;;;3.20;99.90;;;;;;4944031;28;89415;-32
2022/03/20 04:18:31;;;;;;;;;;;3.20;99.90;;;;;;4941746;28;88964;-34
2022/03/20 04:20:56;;;;;;;;;;;3.20;99.90;;;;;;4942768;28;90275;-35
2022/03/20 04:26:06;;;;;;;;;;;3.00;99.90;;;;;;4943457;28;89686;-37
2022/03/20 04:28:31;;;;;;;;;;;3.00;99.90;;;;;;4943849;28;87694;-33
2022/03/20 04:30:57;;;;;;;;;;;3.00;99.90;;;;;;4942453;28;89802;-32
2022/03/20 04:33:25;;;;;;;;;;;3.00;99.90;;;;;;4942916;28;91089;-33
2022/03/20 04:35:51;;;;;;;;;;;3.00;99.90;;;;;;4942900;28;90673;-34
2022/03/20 04:38:16;;;;;;;;;;;2.90;99.90;;;;;;4943365;28;87480;-34
2022/03/20 04:40:41;;;;;;;;;;;2.90;99.90;;;;;;4943236;28;90097;-35
2022/03/20 04:43:07;;;;;;;;;;;2.90;99.90;;;;;;4942547;28;89858;-36
2022/03/20 04:45:32;;;;;;;;;;;2.90;99.90;;;;;;4943267;28;88977;-34
2022/03/20 04:58:54;;;;;;;;;;;2.80;99.90;;;;;;4942557;28;89594;-35
2022/03/20 05:01:20;;;;;;;;;;;2.70;99.90;;;;;;4942702;28;90641;-35
2022/03/20 05:03:45;;;;;;;;;;;2.70;99.90;;;;;;4942531;28;89403;-36
2022/03/20 05:06:11;;;;;;;;;;;2.70;99.90;;;;;;4942164;28;88914;-36
2022/03/20 05:08:36;;;;;;;;;;;2.70;99.90;;;;;;4943136;28;87744;-35
2022/03/20 05:13:47;;;;;;;;;;;2.70;99.90;;;;;;4942554;28;90352;-32
2022/03/20 05:16:12;;;;;;;;;;;2.60;99.90;;;;;;4943073;28;88869;-32
2022/03/20 05:18:38;;;;;;;;;;;2.60;99.90;;;;;;4941893;28;88717;-34
2022/03/20 05:21:04;;;;;;;;;;;2.60;99.90;;;;;;4942341;28;90087;-34
2022/03/20 05:23:30;;;;;;;;;;;2.60;99.90;;;;;;4941869;28;90680;-34
2022/03/20 05:25:55;;;;;;;;;;;2.60;99.90;;;;;;4942548;28;89026;-37
2022/03/20 05:28:21;;;;;;;;;;;2.60;99.90;;;;;;4942730;28;90229;-32
2022/03/20 05:30:46;;;;;;;;;;;2.50;99.90;;;;;;4941200;28;89257;-37
2022/03/20 05:33:12;;;;;;;;;;;2.50;99.90;;;;;;4941658;28;89582;-33
2022/03/20 05:35:39;;;;;;;;;;;2.50;99.90;;;;;;4941739;28;90042;-35
2022/03/20 05:38:06;;;;;;;;;;;2.50;99.90;;;;;;4943354;28;90021;-33
2022/03/20 05:40:31;;;;;;;;;;;2.60;99.90;;;;;;4942348;28;89342;-35
2022/03/20 05:42:57;;;;;;;;;;;2.60;99.90;;;;;;4941207;28;89653;-31
2022/03/20 05:45:23;;;;;;;;;;;2.60;99.90;;;;;;4941877;28;88884;-35
2022/03/20 05:47:49;;;;;;;;;;;2.60;99.90;;;;;;4941637;28;88271;-33
2022/03/20 05:50:15;;;;;;;;;;;2.50;99.90;;;;;;4942134;28;89121;-34
2022/03/20 05:52:41;;;;;;;;;;;2.50;99.90;;;;;;4942094;28;90103;-32
2022/03/20 05:55:07;;;;;;;;;;;2.50;99.90;;;;;;4941881;28;88559;-33
2022/03/20 06:00:21;;;;;;;;;;;2.60;99.90;;;;;;4942445;28;90304;-35
2022/03/20 06:02:46;;;;;;;;;;;2.60;99.90;;;;;;4941482;28;89653;-37
2022/03/20 06:05:12;;;;;;;;;;;2.60;99.90;;;;;;4941894;28;89647;-36
2022/03/20 06:07:41;;;;;;;;;;;2.60;99.90;;;;;;4942327;28;88817;-32
2022/03/20 06:10:11;;;;;;;;;;;2.60;99.90;;;;;;4941934;28;90431;-35
2022/03/20 06:12:37;;;;;;;;;;;2.60;99.90;;;;;;4941035;28;90778;-33
2022/03/20 06:15:03;;;;;;;;;;;2.70;99.90;;;;;;4941124;28;90822;-32
2022/03/20 06:17:29;;;;;;;;;;;2.70;99.90;;;;;;4942138;28;87525;-36
2022/03/20 06:19:54;;;;;;;;;;;2.70;99.90;;;;;;4940829;28;89040;-35
2022/03/20 06:22:19;;;;;;;;;;;2.70;99.90;;;;;;4942417;28;89763;-33
2022/03/20 06:24:45;;;;;;;;;;;2.80;99.90;;;;;;4941492;28;90433;-33
2022/03/20 06:27:10;;;;;;;;;;;2.70;99.90;;;;;;4941475;28;87649;-34
2022/03/20 06:29:36;;;;;;;;;;;2.80;99.90;;;;;;4941409;28;91930;-33
2022/03/20 06:32:02;;;;;;;;;;;2.70;99.90;;;;;;4941262;28;89237;-35
2022/03/20 06:34:27;;;;;;;;;;;2.90;99.90;;;;;;4941506;28;88721;-34
2022/03/20 06:36:57;;;;;;;;;;;2.80;99.90;;;;;;4940845;28;89803;-35
2022/03/20 06:39:23;;;;;;;;;;;2.80;99.90;;;;;;4941567;28;90298;-35
2022/03/20 06:41:48;;;;;;;;;;;2.80;99.90;;;;;;4941131;28;89210;-33
2022/03/20 06:44:15;;;;;;;;;;;2.80;99.90;;;;;;4941820;28;90248;-35
2022/03/20 06:46:41;;;;;;;;;;;3.00;99.90;;;;;;4944673;28;87542;-32
2022/03/20 06:49:08;;;;;;;;;;;3.00;99.90;;;;;;4944838;28;90321;-32
2022/03/20 06:51:34;;;;;;;;;;;3.00;99.90;;;;;;4944760;28;89566;-34
2022/03/20 06:53:59;;;;;;;;;;;3.10;99.90;;;;;;4944485;28;89031;-34
2022/03/20 06:56:25;;;;;;;;;;;3.10;99.90;;;;;;4945234;28;89783;-31
2022/03/20 06:58:50;;;;;;;;;;;3.20;99.90;;;;;;4944378;28;91122;-32
2022/03/20 07:01:16;;;;;;;;;;;3.30;99.90;;;;;;4944765;28;90351;-33
2022/03/20 07:03:41;;;;;;;;;;;3.30;99.90;;;;;;4943882;28;90169;-34
2022/03/20 07:06:07;;;;;;;;;;;3.40;99.90;;;;;;4945052;28;87568;-31
2022/03/20 07:08:32;;;;;;;;;;;3.40;99.90;;;;;;4944388;28;91336;-32
2022/03/20 07:10:58;;;;;;;;;;;3.50;99.90;;;;;;4943990;28;89641;-36
2022/03/20 07:16:08;;;;;;;;;;;3.60;99.90;;;;;;4944156;28;88583;-32
2022/03/20 07:18:34;;;;;;;;;;;3.60;99.90;;;;;;4944942;28;91316;-31
2022/03/20 07:21:00;;;;;;;;;;;3.80;99.90;;;;;;4943516;28;89560;-30
2022/03/20 07:23:26;;;;;;;;;;;3.80;99.90;;;;;;4944683;28;87901;-36
2022/03/20 07:31:19;;;;;;;;;;;4.00;99.90;;;;;;4944541;28;89531;-30
2022/03/20 07:33:47;;;;;;;;;;;4.10;99.90;;;;;;4943572;28;89065;-32
2022/03/20 07:36:13;;;;;;;;;;;4.20;99.90;;;;;;4944212;28;89797;-31
2022/03/20 07:38:39;;;;;;;;;;;4.30;99.90;;;;;;4944362;28;90229;-30
2022/03/20 07:41:04;;;;;;;;;;;4.30;99.90;;;;;;4944163;28;89600;-30
2022/03/20 07:43:30;;;;;;;;;;;4.40;99.90;;;;;;4944240;28;88902;-31
2022/03/20 07:45:56;;;;;;;;;;;4.50;99.90;;;;;;4943440;28;88987;-32
2022/03/20 07:48:23;;;;;;;;;;;4.60;99.90;;;;;;4943735;28;90146;-33
2022/03/20 07:50:50;;;;;;;;;;;4.60;99.90;;;;;;4943477;28;90581;-31
2022/03/20 07:53:16;;;;;;;;;;;4.70;99.90;;;;;;4943735;28;89760;-34
2022/03/20 07:55:42;;;;;;;;;;;4.80;99.90;;;;;;4943084;28;88153;-32
2022/03/20 07:58:08;;;;;;;;;;;4.90;99.90;;;;;;4943972;28;90315;-30
2022/03/20 08:00:33;;;;;;;;;;;5.00;99.90;;;;;;4943489;28;90006;-30
2022/03/20 08:02:59;;;;;;;;;;;5.20;99.90;;;;;;4943637;28;89664;-32
2022/03/20 08:05:26;;;;;;;;;;;5.20;99.90;;;;;;4943877;28;87780;-35
2022/03/20 08:07:52;;;;;;;;;;;5.30;97.50;;;;;;4943321;28;90096;-35
2022/03/20 08:10:17;;;;;;;;;;;5.40;93.90;;;;;;4943483;28;89729;-32
2022/03/20 08:12:43;;;;;;;;;;;5.40;98.30;;;;;;4943111;28;88796;-31
2022/03/20 08:15:09;;;;;;;;;;;5.50;96.30;;;;;;4943813;28;91951;-31
2022/03/20 08:17:44;;;;;;;;;;;5.60;98.90;;;;;;4942643;28;90210;-33
2022/03/20 08:20:10;;;;;;;;;;;5.70;99.90;;;;;;4943297;28;90163;-33
2022/03/20 08:22:37;;;;;;;;;;;5.70;95.00;;;;;;4943232;28;88763;-32
2022/03/20 08:25:03;;;;;;;;;;;5.90;86.40;;;;;;4943933;28;88195;-35
2022/03/20 08:27:28;;;;;;;;;;;6.00;86.30;;;;;;4950458;28;89808;-32
2022/03/20 08:29:55;;;;;;;;;;;6.00;88.30;;;;;;4949191;28;89556;-32
2022/03/20 08:32:22;;;;;;;;;;;6.00;85.60;;;;;;4943370;28;89948;-34
2022/03/20 08:34:48;;;;;;;;;;;6.00;83.70;;;;;;4943330;28;87475;-36
2022/03/20 08:37:14;;;;;;;;;;;6.10;82.60;;;;;;4942959;28;90092;-31
2022/03/20 08:39:39;;;;;;;;;;;6.20;87.40;;;;;;4941026;28;92092;-35
2022/03/20 08:42:05;;;;;;;;;;;6.40;80.50;;;;;;4944117;28;90054;-32
2022/03/20 08:44:31;;;;;;;;;;;6.40;82.60;;;;;;4943361;28;88513;-33
2022/03/20 08:46:56;;;;;;;;;;;6.60;80.30;;;;;;4941057;28;91216;-34
2022/03/20 08:49:22;;;;;;;;;;;6.70;73.70;;;;;;4942291;28;89964;-35
2022/03/20 08:51:47;;;;;;;;;;;6.70;75.10;;;;;;4943007;28;88994;-34
2022/03/20 08:54:13;;;;;;;;;;;6.80;76.70;;;;;;4943370;28;89124;-34
2022/03/20 08:56:39;;;;;;;;;;;6.90;71.90;;;;;;4942646;28;90220;-34
2022/03/20 08:59:06;;;;;;;;;;;7.00;75.00;;;;;;4942908;28;88542;-35
2022/03/20 09:01:32;;;;;;;;;;;7.00;71.50;;;;;;4942421;28;90144;-35
2022/03/20 09:03:57;;;;;;;;;;;7.10;71.80;;;;;;4942597;28;89095;-33
2022/03/20 09:06:23;;;;;;;;;;;7.20;68.50;;;;;;4943115;28;89566;-33
2022/03/20 09:08:49;;;;;;;;;;;7.20;69.70;;;;;;4941400;28;89809;-33
2022/03/20 09:11:15;;;;;;;;;;;7.30;69.50;;;;;;4942839;28;90010;-31
2022/03/20 09:13:41;;;;;;;;;;;7.40;68.80;;;;;;4942294;28;88064;-34
2022/03/20 09:18:59;;;;;;;;;;;7.50;67.30;;;;;;4948820;28;89446;-34
2022/03/20 09:21:28;;;;;;;;;;;7.70;67.10;;;;;;4948451;28;89002;-34
2022/03/20 09:23:54;;;;;;;;;;;7.80;65.60;;;;;;4946706;28;88651;-36
2022/03/20 09:26:19;;;;;;;;;;;7.90;64.90;;;;;;4939960;28;90219;-32
2022/03/20 09:28:45;;;;;;;;;;;8.00;66.30;;;;;;4938866;28;90529;-35
2022/03/20 09:31:11;;;;;;;;;;;8.10;67.60;;;;;;4940020;28;89620;-33
2022/03/20 09:33:37;;;;;;;;;;;8.20;67.00;;;;;;4939685;28;88732;-34
2022/03/20 09:36:02;;;;;;;;;;;8.30;63.70;;;;;;4940135;28;90100;-34
2022/03/20 09:38:29;;;;;;;;;;;8.30;62.90;;;;;;4939834;28;89363;-34
2022/03/20 09:40:56;;;;;;;;;;;8.30;63.10;;;;;;4940206;28;88943;-34
2022/03/20 09:43:22;;;;;;;;;;;8.30;63.50;;;;;;4940051;28;89860;-38
2022/03/20 09:45:48;;;;;;;;;;;8.40;65.30;;;;;;4939855;28;90630;-32
2022/03/20 09:48:13;;;;;;;;;;;8.50;63.50;;;;;;4938813;28;88409;-38
2022/03/20 09:50:39;;;;;;;;;;;8.50;61.70;;;;;;4940068;28;89940;-34
2022/03/20 09:53:05;;;;;;;;;;;8.50;62.70;;;;;;4939661;28;88898;-36
2022/03/20 09:55:31;;;;;;;;;;;8.50;64.40;;;;;;4940296;28;90501;-33
2022/03/20 09:57:57;;;;;;;;;;;8.50;62.70;;;;;;4939342;28;90873;-34
2022/03/20 10:00:23;;;;;;;;;;;8.60;64.90;;;;;;4939508;28;88981;-35
2022/03/20 10:02:49;;;;;;;;;;;8.90;62.30;;;;;;4940183;28;87553;-35
2022/03/20 10:05:23;;;;;;;;;;;9.00;64.00;;;;;;4939532;28;91119;-35
2022/03/20 10:07:48;;;;;;;;;;;9.20;61.20;;;;;;4939750;28;89516;-35
2022/03/20 10:10:18;;;;;;;;;;;9.30;62.20;;;;;;4939233;28;87995;-35
2022/03/20 10:12:49;;;;;;;;;;;9.40;60.50;;;;;;4939240;28;87623;-35
2022/03/20 10:15:28;;;;;;;;;;;9.40;60.30;;;;;;4939590;28;90258;-35
2022/03/20 10:18:17;;;;;;;;;;;9.50;60.20;;;;;;4939034;28;89277;-37
2022/03/20 10:20:49;;;;;;;;;;;9.50;59.70;;;;;;4942466;28;89959;-35
2022/03/20 10:23:53;;;;;;;;;;;9.50;60.70;;;;;;4943827;28;88912;-34
2022/03/20 10:26:19;;;;;;;;;;;9.50;59.60;;;;;;4939455;28;90313;-34
2022/03/20 10:28:45;;;;;;;;;;;9.60;59.30;;;;;;4939456;28;89477;-37
2022/03/20 10:31:20;;;;;;;;;;;9.70;58.90;;;;;;4940960;28;88518;-34
2022/03/20 10:34:00;;;;;;;;;;;9.70;59.70;;;;;;4942722;28;88761;-32
2022/03/20 10:36:26;;;;;;;;;;;9.70;58.80;;;;;;4942773;28;91424;-34
2022/03/20 10:38:52;;;;;;;;;;;9.60;58.50;;;;;;4942206;28;90329;-35
2022/03/20 10:41:17;;;;;;;;;;;9.60;58.50;;;;;;4943279;28;88913;-32
2022/03/20 10:43:43;;;;;;;;;;;9.60;59.80;;;;;;4942051;28;89604;-36
2022/03/20 10:46:16;;;;;;;;;;;9.70;59.10;;;;;;4942752;28;90143;-35
2022/03/20 10:48:45;;;;;;;;;;;9.70;58.30;;;;;;4942167;28;89847;-38
2022/03/20 10:51:11;;;;;;;;;;;9.80;59.00;;;;;;4941123;28;90457;-35
2022/03/20 10:53:53;;;;;;;;;;;9.90;58.10;;;;;;4943063;28;91346;-32
2022/03/20 10:56:19;;;;;;;;;;;9.90;58.30;;;;;;4941863;28;90837;-33
2022/03/20 10:58:45;;;;;;;;;;;9.90;58.60;;;;;;4942544;28;91090;-34
2022/03/20 11:01:12;;;;;;;;;;;10.00;58.30;;;;;;4941823;28;88934;-36
2022/03/20 11:03:38;;;;;;;;;;;10.10;58.40;;;;;;4942853;28;87800;-37
2022/03/20 11:06:07;;;;;;;;;;;10.10;58.90;;;;;;4943280;28;90122;-34
2022/03/20 11:08:33;;;;;;;;;;;10.20;58.80;;;;;;4941541;28;90454;-36
2022/03/20 11:10:59;;;;;;;;;;;10.20;59.40;;;;;;4942022;28;89962;-37
2022/03/20 11:13:26;;;;;;;;;;;10.40;58.90;;;;;;4942889;28;88324;-32
2022/03/20 11:15:53;;;;;;;;;;;10.50;58.10;;;;;;4941418;28;90643;-36
2022/03/20 11:18:20;;;;;;;;;;;10.60;58.60;;;;;;4941014;28;89217;-37
2022/03/20 11:20:46;;;;;;;;;;;10.70;57.20;;;;;;4942354;28;88188;-36
2022/03/20 11:23:17;;;;;;;;;;;10.60;57.60;;;;;;4942143;28;89073;-35
2022/03/20 11:25:43;;;;;;;;;;;10.70;58.50;;;;;;4951162;28;90431;-36
2022/03/20 11:28:10;;;;;;;;;;;10.90;56.40;;;;;;4961192;28;90360;-35
2022/03/20 11:30:36;;;;;;;;;;;10.90;56.70;;;;;;4959858;28;88514;-34
2022/03/20 11:33:02;;;;;;;;;;;11.00;56.50;;;;;;4961523;28;89301;-33
2022/03/20 11:35:30;;;;;;;;;;;10.90;57.10;;;;;;4960620;28;90055;-33
2022/03/20 11:37:58;;;;;;;;;;;10.90;56.20;;;;;;4960444;28;89556;-34
2022/03/20 11:40:26;;;;;;;;;;;10.90;56.20;;;;;;4961411;28;89033;-34
2022/03/20 11:43:10;;;;;;;;;;;11.00;56.60;;;;;;4961270;28;88285;-33
2022/03/20 11:45:35;;;;;;;;;;;11.00;56.50;;;;;;4960938;28;89451;-35
2022/03/20 11:48:15;;;;;;;;;;;11.00;56.90;;;;;;4961163;28;89509;-36
2022/03/20 11:50:44;;;;;;;;;;;11.10;57.90;;;;;;4961679;28;89086;-36
2022/03/20 11:53:10;;;;;;;;;;;11.20;56.30;;;;;;4961894;28;89142;-32
2022/03/20 11:55:42;;;;;;;;;;;11.40;57.40;;;;;;4960665;28;89925;-37
2022/03/20 11:58:12;;;;;;;;;;;11.40;55.00;;;;;;4961111;28;90990;-34
2022/03/20 12:00:40;;;;;;;;;;;11.40;55.50;;;;;;4961075;28;90268;-34
2022/03/20 12:03:14;;;;;;;;;;;11.40;55.10;;;;;;4960935;28;89570;-33
2022/03/20 12:06:01;;;;;;;;;;;11.40;55.80;;;;;;4960521;28;90186;-35
2022/03/20 12:08:36;;;;;;;;;;;11.50;56.30;;;;;;4960528;28;89963;-34
2022/03/20 12:11:20;;;;;;;;;;;11.60;55.70;;;;;;4961061;28;90203;-33
2022/03/20 12:13:46;;;;;;;;;;;11.50;55.00;;;;;;4960804;28;88862;-35
2022/03/20 12:16:11;;;;;;;;;;;11.40;55.00;;;;;;4981711;23;89792;-36
2022/03/20 12:18:59;;;;;;;;;;;11.30;56.70;;;;;;4959679;28;88597;-36
2022/03/20 12:21:45;;;;;;;;;;;11.40;57.60;;;;;;4960288;28;89772;-37
2022/03/20 12:24:29;;;;;;;;;;;11.60;56.80;;;;;;4960280;28;89437;-35
2022/03/20 12:26:56;;;;;;;;;;;11.90;57.30;;;;;;4959753;28;89855;-34
2022/03/20 12:29:35;;;;;;;;;;;12.20;55.60;;;;;;4960264;28;89341;-37
2022/03/20 12:32:02;;;;;;;;;;;12.30;53.70;;;;;;4960360;28;88927;-35
2022/03/20 12:34:29;;;;;;;;;;;12.30;53.90;;;;;;4960817;28;88515;-34
2022/03/20 12:36:55;;;;;;;;;;;12.20;53.30;;;;;;4960283;28;90357;-34
2022/03/20 12:39:39;;;;;;;;;;;12.20;53.30;;;;;;4959542;28;90104;-35
2022/03/20 12:42:14;;;;;;;;;;;12.10;54.60;;;;;;4961002;28;90386;-36
2022/03/20 12:44:43;;;;;;;;;;;12.00;53.70;;;;;;4960507;28;89881;-33
2022/03/20 12:47:09;;;;;;;;;;;11.70;54.60;;;;;;4960310;28;89801;-33
2022/03/20 12:49:35;;;;;;;;;;;11.50;54.20;;;;;;4959283;28;90758;-40
2022/03/20 12:52:01;;;;;;;;;;;11.50;54.80;;;;;;4959465;28;90420;-34
2022/03/20 12:54:26;;;;;;;;;;;11.50;56.80;;;;;;4960482;28;88306;-34
2022/03/20 12:56:53;;;;;;;;;;;11.70;57.10;;;;;;4959990;28;91104;-35
2022/03/20 12:59:23;;;;;;;;;;;11.90;56.80;;;;;;4959466;28;89934;-33
2022/03/20 13:01:49;;;;;;;;;;;11.90;55.70;;;;;;4959619;28;89900;-34
2022/03/20 13:04:15;;;;;;;;;;;12.00;54.60;;;;;;4960288;28;88440;-37
2022/03/20 13:06:41;;;;;;;;;;;11.80;55.50;;;;;;4960001;28;90081;-35
2022/03/20 13:09:12;;;;;;;;;;;11.80;55.20;;;;;;4959064;28;89826;-34
2022/03/20 13:11:53;;;;;;;;;;;11.80;56.20;;;;;;4959693;28;88887;-37
2022/03/20 13:14:19;;;;;;;;;;;11.90;56.80;;;;;;4959682;28;89828;-36
2022/03/20 13:16:51;;;;;;;;;;;12.10;56.00;;;;;;4959694;28;90004;-32
2022/03/20 13:19:26;;;;;;;;;;;12.10;56.00;;;;;;4959183;28;89843;-33
2022/03/20 13:21:51;;;;;;;;;;;12.30;54.70;;;;;;4959543;28;90346;-38
2022/03/20 13:24:29;;;;;;;;;;;12.20;56.80;;;;;;4960362;28;89558;-34
2022/03/20 13:26:56;;;;;;;;;;;12.30;55.60;;;;;;4959138;28;90177;-37
2022/03/20 13:29:23;;;;;;;;;;;12.40;55.30;;;;;;4959053;28;89761;-37
2022/03/20 13:32:08;;;;;;;;;;;12.50;54.70;;;;;;4959402;28;88853;-36
2022/03/20 13:34:40;;;;;;;;;;;12.40;55.70;;;;;;4959829;28;89684;-35
2022/03/20 13:37:06;;;;;;;;;;;12.40;54.40;;;;;;4959901;28;88761;-36
2022/03/20 13:39:33;;;;;;;;;;;12.40;55.00;;;;;;4958813;28;90423;-33
2022/03/20 13:41:58;;;;;;;;;;;12.40;55.40;;;;;;4959259;28;91279;-35
2022/03/20 13:44:24;;;;;;;;;;;12.50;56.00;;;;;;4959258;28;88298;-33
2022/03/20 13:46:50;;;;;;;;;;;12.50;55.80;;;;;;4958698;28;90227;-34
2022/03/20 13:49:15;;;;;;;;;;;12.60;55.10;;;;;;4957190;28;89225;-35
2022/03/20 13:51:44;;;;;;;;;;;12.60;55.40;;;;;;4958584;28;89009;-35
2022/03/20 13:54:15;;;;;;;;;;;12.70;55.10;;;;;;4958572;28;88556;-33
2022/03/20 13:56:44;;;;;;;;;;;12.60;55.30;;;;;;4958441;28;90035;-36
2022/03/20 13:59:11;;;;;;;;;;;12.70;54.80;;;;;;4958933;28;89763;-36
2022/03/20 14:01:43;;;;;;;;;;;12.70;55.30;;;;;;4958915;28;89516;-35
2022/03/20 14:04:09;;;;;;;;;;;12.70;54.90;;;;;;4957392;28;90096;-32
2022/03/20 14:06:40;;;;;;;;;;;12.70;55.40;;;;;;4959031;28;90576;-39
2022/03/20 14:09:07;;;;;;;;;;;12.70;55.90;;;;;;4959004;28;88694;-35
2022/03/20 14:11:34;;;;;;;;;;;12.70;54.70;;;;;;4959415;28;88529;-34
2022/03/20 14:13:59;;;;;;;;;;;12.70;55.00;;;;;;4959357;28;89315;-34
2022/03/20 14:16:25;;;;;;;;;;;12.70;54.70;;;;;;4958580;28;90202;-35
2022/03/20 14:18:50;;;;;;;;;;;12.70;54.40;;;;;;4958892;28;89376;-35
2022/03/20 14:21:20;;;;;;;;;;;12.70;55.10;;;;;;4958708;28;89345;-34
2022/03/20 14:24:01;;;;;;;;;;;12.70;54.80;;;;;;4958769;28;87666;-34
2022/03/20 14:26:28;;;;;;;;;;;12.60;55.20;;;;;;4958252;28;91078;-35
2022/03/20 14:29:05;;;;;;;;;;;12.50;55.30;;;;;;4957484;28;90555;-39
2022/03/20 14:39:46;;;;;;;;;;;12.40;57.60;;;;;;4958710;28;89718;-34
2022/03/20 14:42:28;;;;;;;;;;;12.40;55.80;;;;;;4958696;28;91013;-33
2022/03/20 14:44:54;;;;;;;;;;;12.30;56.50;;;;;;4959172;28;89355;-32
2022/03/20 14:47:20;;;;;;;;;;;12.50;55.80;;;;;;4958081;28;90368;-36
2022/03/20 14:49:46;;;;;;;;;;;12.50;55.90;;;;;;4959145;28;89045;-38
2022/03/20 14:52:15;;;;;;;;;;;12.40;55.80;;;;;;4959135;28;89153;-35